Flight Number: EUR2194 Duration: 1:15
Departure: Beograd/Belgrade (LYBE) at 21:15 Distance: 411 Nm
Arrival: Munich Int'l (EDDM) at 22:30 Equipment: B737

Weather Information
Beograd / Surcin, Serbia and Montenegro (LYBE) 44-49N 020-17E 99M Jan 21, 2019 - 07:00 AM EST / 2019.01.21 1200 UTC
Wind: from the ENE (060 degrees) at 5 MPH (4 KT) (direction variable):0
Visibility: greater than 7 mile(s):0
Sky conditions: mostly cloudy Temperature: 35 F (2 C)
Windchill: 30 F (-1 C):1 Dew Point: 30 F (-1 C) Relative Humidity: 80% Pressure (altimeter): 30.15 in. Hg (1021 hPa)
ob: LYBE 211200Z 06004KT 010V090 9999 FEW014 BKN033 02/M01 Q1021 NOSIG cycle: 12
Sunrise: 06:12 Sunset: 15:27 (UTC)

Munchen, Germany (EDDM) 48-21N 011-47E Jan 21, 2019 - 06:50 AM EST / 2019.01.21 1150 UTC
Wind: from the NE (050 degrees) at 5 MPH (4 KT) (direction variable):0
Visibility: greater than 7 mile(s):0
Sky conditions: mostly clear Temperature: 26 F (-3 C)
Windchill: 19 F (-7 C):1 Dew Point: 23 F (-5 C) Relative Humidity: 86% Pressure (altimeter): 30.09 in. Hg (1019 hPa)
ob: EDDM 211150Z 05004KT 010V120 9999 FEW012 M03/M05 Q1019 NOSIG cycle: 12
Sunrise: 06:57 Sunset: 15:50 (UTC)

TAF:2019/01/21 12:27 TAF EDDM 211100Z 2112/2218 VRB03KT 9000 SCT040 TEMPO 2200/2210 3000 BR PROB30 TEMPO 2202/2208 BKN007 BECMG 2212/2214 11005KT

Previous Pireps for this route
Date Aircraft Flight time Fuel used Landing rate On time
2013-10-30B73701.248538-200Yes
2014-02-21B73701.4411407-291No
2016-01-18B73701.147400-302Yes
(pireps marked green are flown by you)

Route map